createdAt,value
2022-08-28T05:56:21.778Z,964.24
2022-08-28T06:01:21.401Z,964.27
2022-08-28T06:06:20.855Z,964.30
2022-08-28T06:11:20.245Z,964.31
2022-08-28T06:16:19.692Z,964.37
2022-08-28T06:21:18.983Z,964.39
2022-08-28T06:26:18.315Z,964.41
2022-08-28T06:31:23.931Z,964.41
2022-08-28T06:36:17.946Z,964.45
2022-08-28T06:41:16.128Z,964.47
2022-08-28T06:46:15.478Z,964.46
2022-08-28T06:51:14.558Z,964.48
2022-08-28T06:56:25.449Z,964.44
2022-08-28T07:01:13.939Z,964.55
2022-08-28T07:03:59.232Z,964.59
2022-08-28T07:08:59.081Z,964.56
2022-08-28T07:13:58.846Z,964.66
2022-08-28T07:18:58.646Z,964.69
2022-08-28T07:23:58.403Z,964.75
2022-08-28T07:29:09.371Z,964.70
2022-08-28T07:33:58.891Z,964.77
2022-08-28T07:38:57.662Z,964.84
2022-08-28T07:43:57.373Z,964.89
2022-08-28T07:48:57.127Z,964.91
2022-08-28T07:53:56.884Z,964.95
2022-08-28T07:58:56.643Z,964.91
2022-08-28T08:04:01.348Z,964.93
2022-08-28T08:08:57.132Z,964.97
2022-08-28T08:13:55.848Z,965.00
2022-08-28T08:18:55.633Z,965.03
2022-08-28T08:23:55.365Z,965.08
2022-08-28T08:28:55.120Z,965.10
2022-08-28T08:33:54.856Z,965.15
2022-08-28T08:38:59.782Z,965.11
2022-08-28T08:43:55.305Z,965.13
2022-08-28T08:48:54.068Z,965.12
2022-08-28T08:53:53.816Z,965.16
2022-08-28T08:58:53.588Z,965.16
2022-08-28T09:03:53.784Z,965.20
2022-08-28T09:08:53.140Z,965.29
2022-08-28T09:13:52.861Z,965.34
2022-08-28T09:18:52.603Z,965.33
2022-08-28T09:23:52.399Z,965.37
2022-08-28T09:28:52.099Z,965.39
2022-08-28T09:33:51.847Z,965.38
2022-08-28T09:38:51.629Z,965.44
2022-08-28T09:43:51.375Z,965.46
2022-08-28T09:48:51.135Z,965.46
2022-08-28T09:53:50.892Z,965.41
2022-08-28T09:58:50.645Z,965.49
2022-08-28T10:03:50.432Z,965.52
2022-08-28T10:08:50.176Z,965.51
2022-08-28T10:13:49.930Z,965.53
2022-08-28T10:18:49.690Z,965.60
2022-08-28T10:23:49.420Z,965.57
2022-08-28T10:28:49.177Z,965.56
2022-08-28T10:33:48.960Z,965.56
2022-08-28T10:38:53.049Z,965.55
2022-08-28T10:43:48.473Z,965.53
2022-08-28T10:48:48.237Z,965.50
2022-08-28T10:53:48.029Z,965.49
2022-08-28T10:58:47.792Z,965.55
2022-08-28T11:03:47.568Z,965.61
2022-08-28T11:08:47.344Z,965.63
2022-08-28T11:13:47.109Z,965.62
2022-08-28T11:18:46.881Z,965.62
2022-08-28T11:23:46.689Z,965.63
2022-08-28T11:28:46.426Z,965.60
2022-08-28T11:33:46.220Z,965.61
2022-08-28T11:38:45.966Z,965.65
2022-08-28T11:43:45.753Z,965.59
2022-08-28T11:48:45.467Z,965.62
2022-08-28T11:53:45.224Z,965.57
2022-08-28T11:58:44.975Z,965.57
2022-08-28T12:03:44.725Z,965.59
2022-08-28T12:08:44.478Z,965.52
2022-08-28T12:13:44.229Z,965.59
2022-08-28T12:18:43.972Z,965.56
2022-08-28T12:23:43.757Z,965.54
2022-08-28T12:28:43.537Z,965.48
2022-08-28T12:33:43.310Z,965.58
2022-08-28T12:38:43.092Z,965.54
2022-08-28T12:43:46.688Z,965.49
2022-08-28T12:48:42.593Z,965.55
2022-08-28T12:50:51.368Z,965.53
2022-08-28T12:55:51.145Z,965.63
2022-08-28T13:00:50.973Z,965.63
2022-08-28T13:05:50.675Z,965.55
2022-08-28T13:10:50.441Z,965.48
2022-08-28T13:15:50.195Z,965.46
2022-08-28T13:20:49.952Z,965.53
2022-08-28T13:25:49.704Z,965.53
2022-08-28T13:30:49.511Z,965.51
2022-08-28T13:35:49.263Z,965.52
2022-08-28T13:41:04.462Z,965.51
2022-08-28T13:45:49.788Z,965.47
2022-08-28T13:50:48.632Z,965.47
2022-08-28T13:55:48.257Z,965.45
2022-08-28T14:00:48.103Z,965.46
2022-08-28T14:05:47.864Z,965.44
2022-08-28T14:10:47.539Z,965.46
2022-08-28T14:15:47.335Z,965.49
2022-08-28T14:20:47.126Z,965.41
2022-08-28T14:25:46.906Z,965.45
2022-08-28T14:30:46.708Z,965.40
2022-08-28T14:35:46.498Z,965.37
2022-08-28T14:40:46.305Z,965.34
2022-08-28T14:45:46.153Z,965.38
2022-08-28T14:50:45.921Z,965.36
2022-08-28T14:55:45.750Z,965.43
2022-08-28T15:00:45.556Z,965.46
2022-08-28T15:05:45.337Z,965.43
2022-08-28T15:10:45.166Z,965.43
2022-08-28T15:15:44.984Z,965.47
2022-08-28T15:20:44.811Z,965.48
2022-08-28T15:25:44.653Z,965.54
2022-08-28T15:30:44.485Z,965.46
2022-08-28T15:35:44.298Z,965.45
2022-08-28T15:40:44.297Z,965.43
2022-08-28T15:45:44.072Z,965.44
2022-08-28T15:50:43.744Z,965.39
2022-08-28T15:55:43.567Z,965.39
2022-08-28T16:00:43.422Z,965.41
2022-08-28T16:05:43.180Z,965.35
2022-08-28T16:10:43.003Z,965.32
2022-08-28T16:15:42.818Z,965.33
2022-08-28T16:20:42.645Z,965.31
2022-08-28T16:25:42.451Z,965.34
2022-08-28T16:30:44.005Z,965.29
2022-08-28T16:35:56.919Z,965.32
2022-08-28T16:40:42.948Z,965.32
2022-08-28T16:45:41.668Z,965.33
2022-08-28T16:50:41.488Z,965.35
2022-08-28T16:55:41.304Z,965.35
2022-08-28T17:00:52.385Z,965.38
2022-08-28T17:05:41.899Z,965.42
2022-08-28T17:10:40.708Z,965.51
2022-08-28T17:15:40.495Z,965.50
2022-08-28T17:20:40.306Z,965.54
